EBLG/LGG METAR and TAF weather

Enter ICAO airport designator
Station Type Date Time Source
EBLG METAR 2021/01/16 02:20 UTC NOAA

EBLG 160220Z 22005KT 8000 BKN044 M01/M02 Q1029 NOSIG


Station Type Date Time Source
EBLG Decoded METAR 2021/01/16 02:20 UTC NOAA

Bierset, Belgium (EBLG) 50-39N 005-27E 178M
Jan 15, 2021 - 09:20 PM EST / 2021.01.16 0220 UTC
Wind: from the SW (220 degrees) at 6 MPH (5 KT):0
Visibility: 4 mile(s):0
Sky conditions: mostly cloudy
Temperature: 30 F (-1 C)
Windchill: 23 F (-5 C):1
Dew Point: 28 F (-2 C)
Relative Humidity: 92%
Pressure (altimeter): 30.39 in. Hg (1029 hPa)
ob: EBLG 160220Z 22005KT 8000 BKN044 M01/M02 Q1029 NOSIG
cycle: 2

Station Type Date Time Source
EBLG TAF 2021/01/15 18:27 UTC NOAA

TAF EBLG 151708Z 1518/1624 VRB02KT 9999 SCT012 BKN045 PROB40
TEMPO 1522/1608 2000 BR BKN003 PROB30
TEMPO 1602/1606 1200 BCFG BKN002
BECMG 1611/1613 18011KT
TEMPO 1616/1624 3000 -SN BKN004 PROB40
TEMPO 1617/1622 1200 SN BKN002

Example: see airport list